createdAt,value
2023-01-12T00:02:52.868Z,96927.31
2023-01-12T00:08:13.462Z,96930.44
2023-01-12T00:13:34.431Z,96926.09
2023-01-12T00:18:55.394Z,96931.69
2023-01-12T00:24:18.152Z,96936.03
2023-01-12T00:29:39.323Z,96931.69
2023-01-12T00:35:00.527Z,96931.69
2023-01-12T00:40:21.441Z,96940.53
2023-01-12T00:45:42.354Z,96947.63
2023-01-12T00:51:04.621Z,96946.97
2023-01-12T00:56:25.648Z,96952.56
2023-01-12T01:01:46.583Z,96958.69
2023-01-12T01:07:07.241Z,96964.81
2023-01-12T01:12:27.976Z,96975.56
2023-01-12T01:17:48.561Z,96986.72
2023-01-12T01:23:09.242Z,96981.47
2023-01-12T01:28:29.837Z,96981.28
2023-01-12T01:33:51.545Z,96990.50
2023-01-12T01:39:12.542Z,97008.28
2023-01-12T01:44:33.230Z,97005.59
2023-01-12T01:49:58.768Z,96992.53
2023-01-12T01:55:25.094Z,97001.16
2023-01-12T02:00:46.568Z,97006.94
2023-01-12T02:06:09.042Z,97011.91
2023-01-12T02:11:48.956Z,96993.69
2023-01-12T02:17:22.004Z,96992.34
2023-01-12T02:23:15.115Z,96991.91
2023-01-12T02:28:35.907Z,96989.94
2023-01-12T02:34:32.350Z,96987.47
2023-01-12T02:40:15.876Z,96977.13
2023-01-12T02:46:03.865Z,96986.84
2023-01-12T02:51:40.901Z,96996.69
2023-01-12T02:57:06.255Z,97000.19
2023-01-12T03:02:28.150Z,96994.81
2023-01-12T03:07:58.493Z,97004.13
2023-01-12T03:13:20.600Z,97000.50
2023-01-12T03:19:09.796Z,96992.50
2023-01-12T03:24:57.400Z,96988.50
2023-01-12T03:30:30.666Z,96994.91
2023-01-12T03:36:15.951Z,96994.88
2023-01-12T03:41:51.704Z,96993.16
2023-01-12T03:47:20.773Z,96990.38
2023-01-12T03:52:43.533Z,96982.75
2023-01-12T03:58:05.572Z,96981.81
2023-01-12T04:03:26.415Z,96978.19
2023-01-12T04:08:47.200Z,96987.06
2023-01-12T04:14:07.928Z,96996.19
2023-01-12T04:19:28.723Z,96989.81
2023-01-12T04:24:49.226Z,96987.59
2023-01-12T04:30:10.643Z,96976.88
2023-01-12T04:35:31.505Z,96980.59
2023-01-12T04:40:55.722Z,96979.47
2023-01-12T04:46:16.442Z,96977.66
2023-01-12T04:51:37.683Z,96978.16
2023-01-12T04:56:58.617Z,96974.03
2023-01-12T05:02:19.290Z,96970.81
2023-01-12T05:08:00.171Z,96971.00
2023-01-12T05:13:21.343Z,96960.56
2023-01-12T05:18:42.774Z,96966.47
2023-01-12T05:24:03.942Z,96959.38
2023-01-12T05:29:24.554Z,96953.16
2023-01-12T05:34:45.320Z,96963.50
2023-01-12T05:40:06.651Z,96957.69
2023-01-12T05:45:27.463Z,96971.78
2023-01-12T05:50:48.059Z,96963.19
2023-01-12T05:56:17.697Z,96961.06
2023-01-12T06:01:40.450Z,96960.84
2023-01-12T06:07:01.437Z,96963.50
2023-01-12T06:12:40.563Z,96962.75
2023-01-12T06:18:01.214Z,96966.81
2023-01-12T06:23:21.767Z,96965.28
2023-01-12T06:28:56.672Z,96971.09
2023-01-12T06:34:17.435Z,96960.59
2023-01-12T06:39:38.493Z,96972.56
2023-01-12T06:45:03.908Z,96959.88
2023-01-12T06:50:25.156Z,96958.88
2023-01-12T06:55:50.095Z,96961.16
2023-01-12T07:01:11.123Z,96964.28
2023-01-12T07:06:32.432Z,96948.97
2023-01-12T07:11:53.446Z,96947.44
2023-01-12T07:17:14.228Z,96946.22
2023-01-12T07:22:35.058Z,96934.84
2023-01-12T07:27:57.727Z,96942.88
2023-01-12T07:33:18.798Z,96937.91
2023-01-12T07:38:39.634Z,96929.34
2023-01-12T07:44:00.509Z,96930.47
2023-01-12T07:49:21.384Z,96934.34
2023-01-12T07:54:42.037Z,96933.09
2023-01-12T08:00:06.087Z,96930.63
2023-01-12T08:05:27.125Z,96925.47
2023-01-12T08:10:50.215Z,96933.09
2023-01-12T08:16:22.364Z,96925.69
2023-01-12T08:21:52.707Z,96925.19
2023-01-12T08:27:14.079Z,96932.31
2023-01-12T08:32:36.462Z,96938.84
2023-01-12T08:37:57.501Z,96940.00
2023-01-12T08:43:38.518Z,96946.63
2023-01-12T08:49:04.310Z,96934.59
2023-01-12T08:54:25.815Z,96927.56
2023-01-12T08:59:46.432Z,96930.59
2023-01-12T09:05:07.620Z,96925.09
2023-01-12T09:10:28.792Z,96911.22
2023-01-12T09:16:01.335Z,96915.38
2023-01-12T09:21:31.600Z,96908.69
2023-01-12T09:26:52.426Z,96917.47
2023-01-12T09:32:13.748Z,96910.28
2023-01-12T09:37:34.563Z,96911.81
2023-01-12T09:43:13.796Z,96917.28
2023-01-12T09:48:34.482Z,96903.66
2023-01-12T09:53:55.419Z,96904.16
2023-01-12T09:59:34.366Z,96892.38
2023-01-12T10:04:57.077Z,96889.78
2023-01-12T10:10:17.930Z,96896.75
2023-01-12T10:15:46.387Z,96885.44
2023-01-12T10:21:11.615Z,96882.25
2023-01-12T10:26:40.819Z,96873.78
2023-01-12T10:32:01.765Z,96867.44
2023-01-12T10:37:22.862Z,96856.81
2023-01-12T10:43:15.795Z,96858.03
2023-01-12T10:48:52.037Z,96853.28
2023-01-12T10:54:19.634Z,96848.94
2023-01-12T10:59:41.811Z,96849.16
2023-01-12T11:05:02.458Z,96843.59
2023-01-12T11:10:32.154Z,96837.72
2023-01-12T11:16:08.746Z,96833.34
2023-01-12T11:21:34.365Z,96826.53
2023-01-12T11:27:22.063Z,96814.50
2023-01-12T11:32:45.098Z,96803.66
2023-01-12T11:38:17.169Z,96799.31
2023-01-12T11:43:59.137Z,96797.06
2023-01-12T11:49:37.267Z,96786.69
2023-01-12T11:54:58.113Z,96776.56
2023-01-12T12:00:43.976Z,96774.56
2023-01-12T12:06:05.211Z,96775.16
2023-01-12T12:11:59.566Z,96765.03
2023-01-12T12:17:49.915Z,96750.91
2023-01-12T12:23:23.396Z,96738.41
2023-01-12T12:29:01.531Z,96728.16
2023-01-12T12:34:25.159Z,96731.09
2023-01-12T12:39:56.629Z,96713.19
2023-01-12T12:45:43.125Z,96713.41
2023-01-12T12:51:09.024Z,96703.28
2023-01-12T12:56:33.268Z,96694.09
2023-01-12T13:01:55.528Z,96688.34
2023-01-12T13:07:20.317Z,96680.22
2023-01-12T13:12:41.295Z,96682.31
2023-01-12T13:18:03.659Z,96680.19
2023-01-12T13:23:45.580Z,96680.88
2023-01-12T13:29:39.810Z,96680.41
2023-01-12T13:35:00.722Z,96678.66
2023-01-12T13:40:28.524Z,96682.19
2023-01-12T13:45:56.548Z,96683.47
2023-01-12T13:51:28.281Z,96677.72
2023-01-12T13:57:03.920Z,96680.75
2023-01-12T14:02:27.416Z,96677.00
2023-01-12T14:07:58.903Z,96672.88
2023-01-12T14:13:29.700Z,96669.34
2023-01-12T14:18:50.689Z,96663.56
2023-01-12T14:24:17.436Z,96654.97
2023-01-12T14:29:38.689Z,96647.31
2023-01-12T14:34:59.318Z,96645.69
2023-01-12T14:40:28.057Z,96650.88
2023-01-12T14:46:15.081Z,96642.50
2023-01-12T14:51:36.683Z,96644.25
2023-01-12T14:56:59.832Z,96632.97
2023-01-12T15:02:27.367Z,96636.16
2023-01-12T15:08:04.816Z,96631.91
2023-01-12T15:13:33.002Z,96631.69
2023-01-12T15:19:12.332Z,96638.59
2023-01-12T15:24:54.430Z,96642.75
2023-01-12T15:30:15.910Z,96636.97
2023-01-12T15:35:41.750Z,96635.09
2023-01-12T15:41:04.180Z,96634.75
2023-01-12T15:46:25.396Z,96636.88
2023-01-12T15:51:50.931Z,96632.41
2023-01-12T15:57:13.815Z,96629.81
2023-01-12T16:02:38.196Z,96630.75
2023-01-12T16:07:59.643Z,96632.53
2023-01-12T16:13:20.201Z,96630.63
2023-01-12T16:18:40.857Z,96638.88
2023-01-12T16:24:02.107Z,96639.22
2023-01-12T16:29:23.960Z,96631.47
2023-01-12T16:34:45.853Z,96638.28
2023-01-12T16:40:07.270Z,96633.34
2023-01-12T16:45:28.162Z,96634.03
2023-01-12T16:50:48.892Z,96639.81
2023-01-12T16:56:15.932Z,96628.16
2023-01-12T17:01:39.579Z,96628.06
2023-01-12T17:07:00.778Z,96622.66
2023-01-12T17:12:21.614Z,96632.38
2023-01-12T17:17:42.316Z,96626.47
2023-01-12T17:23:03.327Z,96624.69
2023-01-12T17:28:24.026Z,96631.91
2023-01-12T17:33:45.017Z,96631.66
2023-01-12T17:39:06.974Z,96619.31
2023-01-12T17:44:27.901Z,96614.97
2023-01-12T17:49:49.190Z,96619.91
2023-01-12T17:55:10.362Z,96614.81
2023-01-12T18:00:32.608Z,96606.13
2023-01-12T18:06:04.381Z,96612.72
2023-01-12T18:11:27.115Z,96610.59
2023-01-12T18:16:48.088Z,96600.94
2023-01-12T18:22:10.831Z,96599.78
2023-01-12T18:27:31.695Z,96594.69
2023-01-12T18:32:52.488Z,96577.63
2023-01-12T18:38:13.521Z,96594.94
2023-01-12T18:43:34.639Z,96588.47
2023-01-12T18:49:04.855Z,96582.22
2023-01-12T18:54:25.550Z,96594.69
2023-01-12T18:59:48.091Z,96589.84
2023-01-12T19:05:24.149Z,96589.84
2023-01-12T19:10:45.090Z,96585.34
2023-01-12T19:16:24.975Z,96593.13
2023-01-12T19:22:04.165Z,96585.69
2023-01-12T19:27:43.498Z,96594.75
2023-01-12T19:33:07.771Z,96593.38
2023-01-12T19:38:28.431Z,96589.38
2023-01-12T19:43:49.527Z,96582.69
2023-01-12T19:49:10.995Z,96581.59
2023-01-12T19:54:31.764Z,96575.25
2023-01-12T19:59:52.510Z,96561.09
2023-01-12T20:05:22.759Z,96564.16
2023-01-12T20:10:43.917Z,96555.69
2023-01-12T20:16:09.459Z,96553.56
2023-01-12T20:21:30.658Z,96552.47
2023-01-12T20:26:52.240Z,96548.81
2023-01-12T20:32:12.889Z,96537.25
2023-01-12T20:37:34.373Z,96535.59
2023-01-12T20:42:55.055Z,96539.09
2023-01-12T20:48:15.730Z,96534.03
2023-01-12T20:53:36.502Z,96545.56
2023-01-12T20:58:58.923Z,96541.59
2023-01-12T21:04:20.122Z,96542.78
2023-01-12T21:09:41.178Z,96534.19
2023-01-12T21:15:04.077Z,96539.38
2023-01-12T21:20:24.925Z,96542.91
2023-01-12T21:25:45.438Z,96528.16
2023-01-12T21:31:08.943Z,96524.63
2023-01-12T21:36:29.722Z,96527.34
2023-01-12T21:42:09.253Z,96532.63
2023-01-12T21:47:30.180Z,96524.44
2023-01-12T21:52:52.569Z,96531.38
2023-01-12T21:58:13.547Z,96537.38
2023-01-12T22:03:34.718Z,96535.38
2023-01-12T22:08:55.589Z,96528.53
2023-01-12T22:14:17.110Z,96521.56
2023-01-12T22:19:39.551Z,96513.09
2023-01-12T22:25:00.462Z,96512.84
2023-01-12T22:30:24.724Z,96510.25
2023-01-12T22:35:45.664Z,96519.28
2023-01-12T22:41:08.740Z,96513.53
2023-01-12T22:46:29.699Z,96506.09
2023-01-12T22:51:50.316Z,96506.22
2023-01-12T22:57:11.006Z,96509.88
2023-01-12T23:02:50.460Z,96502.38
2023-01-12T23:08:11.758Z,96494.59
2023-01-12T23:13:32.717Z,96494.69
2023-01-12T23:18:55.364Z,96490.22
2023-01-12T23:24:16.360Z,96488.69
2023-01-12T23:29:37.245Z,96495.28
2023-01-12T23:34:58.088Z,96488.19
2023-01-12T23:40:19.898Z,96490.22
2023-01-12T23:45:40.566Z,96483.28
2023-01-12T23:51:02.373Z,96475.59
2023-01-12T23:56:23.698Z,96478.09
